Terminal Aerodrome Forecast
Issued by NWS

Home | Current Version | Previous Version | Text Only | Print | Product List | Glossary On
Versions: 1 2 3 4 5 6 7 8 9 10 11 12 13 14 15 16
000
FTUS46 KPDT 291100
TAFYKM
TAF
KYKM 291138Z 2912/3012 27005KT P6SM SCT080 BKN120
     FM291800 VRB05KT P6SM FEW080 SCT120
     FM300000 25005KT P6SM SCT120=

USA.gov is the U.S. government's official web portal to all federal, state and local government web resources and services.